createdAt,value
2018-05-27T00:02:05.355Z,10.13
2018-05-27T00:04:35.824Z,9.77
2018-05-27T00:07:06.817Z,9.70
2018-05-27T00:09:37.128Z,9.70
2018-05-27T00:12:07.196Z,12.27
2018-05-27T00:14:37.255Z,13.40
2018-05-27T00:17:08.382Z,10.43
2018-05-27T00:19:39.381Z,14.07
2018-05-27T00:22:09.724Z,11.27
2018-05-27T00:24:41.707Z,11.10
2018-05-27T00:27:12.744Z,11.13
2018-05-27T00:29:44.150Z,11.33
2018-05-27T00:32:14.915Z,11.90
2018-05-27T00:34:44.986Z,14.20
2018-05-27T00:37:15.144Z,12.67
2018-05-27T00:42:07.604Z,16.27
2018-05-27T00:44:37.763Z,14.07
2018-05-27T00:47:08.084Z,16.73
2018-05-27T00:49:38.471Z,19.47
2018-05-27T00:52:08.733Z,16.10
2018-05-27T00:54:38.769Z,18.00
2018-05-27T00:57:09.468Z,19.77
2018-05-27T00:59:39.532Z,17.80
2018-05-27T01:02:09.796Z,17.20
2018-05-27T01:04:41.013Z,16.63
2018-05-27T01:07:12.436Z,20.50
2018-05-27T01:09:43.312Z,20.33
2018-05-27T01:12:13.666Z,18.73
2018-05-27T01:14:43.987Z,18.87
2018-05-27T01:17:14.178Z,19.70
2018-05-27T01:19:45.045Z,22.43
2018-05-27T01:22:15.465Z,22.03
2018-05-27T01:24:47.183Z,24.33
2018-05-27T01:27:17.374Z,21.63
2018-05-27T01:29:47.555Z,24.27
2018-05-27T01:32:18.132Z,25.13
2018-05-27T01:34:48.481Z,28.53
2018-05-27T01:37:18.728Z,30.23
2018-05-27T01:39:49.960Z,30.23
2018-05-27T01:42:20.288Z,37.73
2018-05-27T01:44:50.342Z,34.93
2018-05-27T01:47:21.017Z,38.30
2018-05-27T01:49:51.372Z,37.60
2018-05-27T01:52:21.502Z,36.87
2018-05-27T01:54:51.832Z,38.33
2018-05-27T01:57:22.188Z,44.33
2018-05-27T01:59:52.205Z,48.80
2018-05-27T02:02:22.544Z,43.07
2018-05-27T02:04:52.957Z,44.23
2018-05-27T02:07:23.913Z,43.63
2018-05-27T02:09:54.364Z,45.93
2018-05-27T02:12:25.912Z,45.20
2018-05-27T02:14:56.202Z,44.20
2018-05-27T02:17:26.236Z,49.53
2018-05-27T02:19:56.485Z,48.57
2018-05-27T02:22:27.284Z,54.80
2018-05-27T02:24:57.270Z,54.33
2018-05-27T02:27:27.270Z,50.53
2018-05-27T02:29:58.516Z,57.10
2018-05-27T02:32:28.984Z,55.10
2018-05-27T02:34:58.997Z,53.90
2018-05-27T02:37:29.251Z,51.83
2018-05-27T02:39:59.253Z,57.17
2018-05-27T02:42:29.482Z,58.20
2018-05-27T02:45:00.216Z,64.17
2018-05-27T02:47:30.450Z,66.80
2018-05-27T02:50:00.532Z,66.77
2018-05-27T02:52:31.613Z,70.07
2018-05-27T02:55:02.378Z,90.17
2018-05-27T02:57:32.836Z,83.33
2018-05-27T03:00:02.904Z,83.30
2018-05-27T03:02:34.055Z,80.27
2018-05-27T03:05:04.138Z,92.23
2018-05-27T03:07:34.128Z,83.77
2018-05-27T03:10:04.593Z,88.07
2018-05-27T03:12:34.813Z,91.90
2018-05-27T03:15:05.675Z,99.27
2018-05-27T03:17:36.032Z,114.53
2018-05-27T03:20:07.192Z,109.83
2018-05-27T03:22:37.264Z,104.30
2018-05-27T03:25:07.327Z,84.83
2018-05-27T03:27:37.513Z,90.57
2018-05-27T03:30:07.768Z,76.63
2018-05-27T03:32:38.297Z,63.10
2018-05-27T03:35:10.134Z,61.90
2018-05-27T03:37:40.371Z,54.50
2018-05-27T03:40:11.941Z,50.50
2018-05-27T03:42:41.970Z,64.50
2018-05-27T03:45:13.280Z,51.73
2018-05-27T03:47:44.054Z,50.13
2018-05-27T03:50:14.351Z,61.10
2018-05-27T03:52:44.392Z,61.97
2018-05-27T03:55:15.459Z,68.93
2018-05-27T03:57:45.736Z,46.00
2018-05-27T04:00:15.763Z,60.03
2018-05-27T04:02:46.132Z,44.47
2018-05-27T04:05:27.930Z,52.17
2018-05-27T04:08:09.096Z,53.23
2018-05-27T04:10:39.153Z,50.17
2018-05-27T04:13:10.351Z,42.63
2018-05-27T04:15:40.360Z,47.17
2018-05-27T04:18:10.548Z,43.00
2018-05-27T04:20:41.681Z,40.23
2018-05-27T04:23:12.040Z,41.23
2018-05-27T04:25:43.202Z,38.33
2018-05-27T04:28:13.258Z,38.03
2018-05-27T04:30:43.606Z,39.37
2018-05-27T04:33:13.843Z,35.03
2018-05-27T04:35:44.602Z,32.53
2018-05-27T04:38:14.665Z,31.33
2018-05-27T04:40:44.695Z,32.47
2018-05-27T04:43:15.796Z,36.43
2018-05-27T04:45:45.860Z,34.03
2018-05-27T04:48:16.728Z,37.87
2018-05-27T04:50:46.856Z,33.43
2018-05-27T04:53:16.889Z,36.30
2018-05-27T04:55:47.527Z,35.53
2018-05-27T04:58:17.564Z,41.77
2018-05-27T05:00:47.576Z,32.20
2018-05-27T05:03:18.082Z,29.50
2018-05-27T05:05:49.233Z,32.70
2018-05-27T05:08:19.623Z,35.73
2018-05-27T05:10:50.093Z,34.03
2018-05-27T05:13:20.685Z,32.23
2018-05-27T05:15:50.919Z,35.13
2018-05-27T05:18:21.352Z,32.33
2018-05-27T05:20:51.405Z,32.27
2018-05-27T05:23:21.704Z,32.43
2018-05-27T05:25:52.309Z,27.57
2018-05-27T05:28:22.373Z,29.70
2018-05-27T05:30:52.676Z,30.63
2018-05-27T05:33:23.111Z,37.27
2018-05-27T05:35:53.146Z,38.07
2018-05-27T05:38:23.249Z,34.47
2018-05-27T05:40:53.755Z,34.13
2018-05-27T05:43:23.837Z,34.50
2018-05-27T05:45:55.002Z,30.23
2018-05-27T05:48:25.285Z,29.27
2018-05-27T05:50:55.308Z,30.70
2018-05-27T05:53:26.253Z,26.80
2018-05-27T05:55:58.087Z,29.57
2018-05-27T05:58:28.100Z,29.90
2018-05-27T06:00:58.174Z,28.80
2018-05-27T06:03:28.558Z,31.00
2018-05-27T06:05:59.645Z,33.03
2018-05-27T06:08:29.637Z,26.57
2018-05-27T06:11:00.123Z,29.27
2018-05-27T06:13:30.688Z,30.30
2018-05-27T06:16:02.040Z,26.10
2018-05-27T06:18:32.949Z,31.87
2018-05-27T06:21:03.442Z,38.40
2018-05-27T06:23:33.534Z,29.77
2018-05-27T06:26:03.859Z,33.00
2018-05-27T06:28:34.533Z,34.20
2018-05-27T06:31:04.648Z,32.73
2018-05-27T06:33:34.732Z,30.97
2018-05-27T06:36:05.156Z,28.13
2018-05-27T06:38:35.462Z,25.53
2018-05-27T06:41:05.648Z,27.53
2018-05-27T06:43:36.004Z,29.40
2018-05-27T06:46:07.109Z,31.60
2018-05-27T06:48:37.188Z,33.33
2018-05-27T06:51:07.934Z,29.40
2018-05-27T06:53:38.213Z,33.20
2018-05-27T06:56:09.274Z,31.23
2018-05-27T06:58:40.217Z,30.03
2018-05-27T07:01:15.710Z,36.10
2018-05-27T07:03:47.926Z,35.37
2018-05-27T07:06:18.854Z,32.17
2018-05-27T07:08:50.502Z,37.27
2018-05-27T07:11:20.593Z,35.13
2018-05-27T07:13:51.471Z,32.10
2018-05-27T07:16:21.833Z,31.13
2018-05-27T07:18:52.213Z,34.03
2018-05-27T07:21:23.071Z,28.13
2018-05-27T07:23:53.335Z,28.00
2018-05-27T07:26:23.772Z,24.70
2018-05-27T07:28:54.896Z,24.80
2018-05-27T07:31:25.245Z,28.20
2018-05-27T07:33:56.056Z,23.50
2018-05-27T07:36:26.117Z,23.20
2018-05-27T07:38:57.298Z,26.00
2018-05-27T07:41:28.540Z,21.50
2018-05-27T07:43:59.007Z,22.63
2018-05-27T07:46:29.924Z,21.00
2018-05-27T07:49:00.033Z,19.17
2018-05-27T07:51:30.324Z,22.50
2018-05-27T07:54:00.448Z,16.67
2018-05-27T07:56:30.909Z,17.83
2018-05-27T07:59:00.931Z,16.30
2018-05-27T08:01:31.608Z,14.57
2018-05-27T08:04:02.553Z,12.77
2018-05-27T08:06:33.713Z,12.07
2018-05-27T08:09:04.399Z,13.00
2018-05-27T08:11:34.724Z,9.70
2018-05-27T08:14:05.519Z,8.60
2018-05-27T08:16:35.885Z,8.73
2018-05-27T08:19:07.729Z,9.70
2018-05-27T08:21:38.036Z,9.43
2018-05-27T08:24:08.036Z,10.00
2018-05-27T08:26:39.090Z,10.07
2018-05-27T08:29:10.467Z,9.57
2018-05-27T08:31:41.565Z,10.60
2018-05-27T08:34:11.570Z,9.40
2018-05-27T08:36:42.686Z,8.67
2018-05-27T08:39:12.819Z,8.47
2018-05-27T08:41:43.697Z,8.70
2018-05-27T08:44:14.049Z,8.23
2018-05-27T08:46:44.168Z,10.03
2018-05-27T08:49:14.782Z,8.77
2018-05-27T08:51:45.205Z,8.80
2018-05-27T08:54:15.969Z,8.93
2018-05-27T08:56:46.023Z,10.13
2018-05-27T08:59:16.392Z,12.40
2018-05-27T09:01:46.474Z,10.63
2018-05-27T09:04:17.080Z,7.77
2018-05-27T09:06:48.274Z,8.87
2018-05-27T09:09:18.588Z,11.07
2018-05-27T09:11:49.356Z,11.13
2018-05-27T09:14:19.613Z,10.23
2018-05-27T09:16:49.900Z,9.47
2018-05-27T09:19:20.893Z,10.97
2018-05-27T09:21:51.931Z,9.50
2018-05-27T09:24:23.158Z,9.83
2018-05-27T09:26:53.167Z,11.30
2018-05-27T09:29:23.416Z,10.00
2018-05-27T09:31:54.624Z,10.93
2018-05-27T09:34:24.640Z,10.87
2018-05-27T09:36:54.668Z,10.53
2018-05-27T09:41:46.601Z,11.43
2018-05-27T09:44:16.800Z,11.03
2018-05-27T09:46:47.264Z,11.40
2018-05-27T09:49:17.295Z,10.53
2018-05-27T09:51:47.283Z,10.47
2018-05-27T09:54:17.617Z,10.47
2018-05-27T09:56:47.616Z,9.80
2018-05-27T09:59:17.698Z,8.93
2018-05-27T10:01:48.258Z,9.07
2018-05-27T10:04:18.258Z,11.90
2018-05-27T10:06:48.273Z,9.40
2018-05-27T10:09:18.671Z,10.33
2018-05-27T10:11:49.474Z,10.07
2018-05-27T10:14:19.847Z,7.97
2018-05-27T10:16:50.099Z,10.03
2018-05-27T10:19:20.205Z,9.33
2018-05-27T10:21:50.250Z,8.70
2018-05-27T10:24:21.401Z,7.10
2018-05-27T10:26:52.443Z,7.30
2018-05-27T10:29:22.489Z,6.20
2018-05-27T10:31:53.604Z,6.30
2018-05-27T10:34:23.839Z,7.27
2018-05-27T10:36:54.645Z,7.20
2018-05-27T10:39:25.818Z,7.23
2018-05-27T10:41:55.830Z,7.47
2018-05-27T10:44:27.095Z,7.30
2018-05-27T10:46:58.255Z,7.20
2018-05-27T10:49:28.393Z,6.50
2018-05-27T10:51:58.645Z,5.57
2018-05-27T10:54:28.957Z,5.60
2018-05-27T10:56:59.296Z,4.70
2018-05-27T10:59:29.542Z,4.93
2018-05-27T11:01:59.808Z,5.70
2018-05-27T11:04:29.923Z,5.00
2018-05-27T11:07:01.194Z,4.77
2018-05-27T11:09:31.491Z,4.70
2018-05-27T11:12:01.489Z,5.80
2018-05-27T11:14:31.841Z,5.20
2018-05-27T11:17:01.948Z,4.60
2018-05-27T11:19:32.145Z,4.40
2018-05-27T11:22:03.839Z,4.03
2018-05-27T11:24:34.260Z,4.47
2018-05-27T11:27:04.676Z,4.00
2018-05-27T11:29:37.266Z,3.60
2018-05-27T11:32:07.604Z,3.50
2018-05-27T11:34:37.580Z,4.27
2018-05-27T11:37:08.826Z,3.50
2018-05-27T11:39:39.912Z,2.93
2018-05-27T11:42:10.045Z,3.83
2018-05-27T11:44:41.174Z,3.90
2018-05-27T11:47:11.887Z,3.60
2018-05-27T11:49:41.987Z,3.37
2018-05-27T11:52:12.352Z,3.90
2018-05-27T11:54:43.262Z,4.23
2018-05-27T11:57:13.608Z,4.07
2018-05-27T11:59:43.963Z,3.87
2018-05-27T12:02:14.490Z,3.90
2018-05-27T12:04:44.924Z,3.50
2018-05-27T12:07:14.957Z,5.30
2018-05-27T12:09:46.237Z,5.50
2018-05-27T12:12:16.424Z,5.50
2018-05-27T12:14:47.365Z,5.17
2018-05-27T12:17:18.303Z,4.90
2018-05-27T12:19:48.674Z,5.27
2018-05-27T12:22:18.739Z,6.47
2018-05-27T12:24:48.973Z,5.63
2018-05-27T12:27:22.269Z,7.83
2018-05-27T12:29:53.171Z,6.07
2018-05-27T12:32:23.329Z,5.20
2018-05-27T12:34:53.745Z,5.53
2018-05-27T12:37:24.454Z,5.07
2018-05-27T12:39:55.961Z,5.37
2018-05-27T12:42:26.382Z,4.50
2018-05-27T12:44:56.622Z,5.33
2018-05-27T12:47:26.856Z,5.20
2018-05-27T12:49:57.216Z,4.90
2018-05-27T12:52:27.326Z,5.00
2018-05-27T12:54:57.716Z,4.47
2018-05-27T12:57:28.425Z,5.87
2018-05-27T12:59:58.727Z,5.80
2018-05-27T13:02:31.804Z,4.30
2018-05-27T13:05:03.105Z,4.80
2018-05-27T13:07:33.185Z,5.07
2018-05-27T13:10:03.810Z,4.73
2018-05-27T13:12:34.409Z,4.30
2018-05-27T13:15:04.600Z,4.17
2018-05-27T13:17:34.781Z,3.80
2018-05-27T13:20:05.429Z,4.10
2018-05-27T13:22:37.089Z,4.30
2018-05-27T13:25:07.256Z,6.17
2018-05-27T13:27:37.820Z,3.50
2018-05-27T13:30:07.953Z,4.77
2018-05-27T13:32:38.827Z,3.90
2018-05-27T13:35:09.232Z,3.00
2018-05-27T13:37:39.999Z,3.47
2018-05-27T13:40:10.498Z,3.00
2018-05-27T13:42:41.212Z,3.93
2018-05-27T13:45:12.176Z,3.40
2018-05-27T13:47:42.439Z,6.37
2018-05-27T13:50:12.851Z,3.20
2018-05-27T13:52:45.141Z,3.50
2018-05-27T13:55:15.597Z,3.20
2018-05-27T13:57:45.871Z,4.27
2018-05-27T14:00:16.094Z,3.23
2018-05-27T14:02:47.292Z,4.37
2018-05-27T14:05:18.149Z,3.30
2018-05-27T14:07:49.253Z,3.20
2018-05-27T14:10:20.999Z,3.77
2018-05-27T14:12:52.181Z,3.50
2018-05-27T14:15:24.025Z,3.50
2018-05-27T14:17:55.035Z,4.30
2018-05-27T14:20:25.270Z,3.50
2018-05-27T14:22:56.200Z,3.60
2018-05-27T14:25:26.627Z,3.30
2018-05-27T14:27:58.981Z,3.70
2018-05-27T14:30:29.531Z,5.10
2018-05-27T14:33:00.723Z,4.07
2018-05-27T14:35:31.553Z,4.77
2018-05-27T14:38:02.843Z,4.93
2018-05-27T14:40:33.321Z,3.90
2018-05-27T14:43:04.259Z,4.17
2018-05-27T14:45:35.418Z,4.27
2018-05-27T14:48:06.692Z,3.80
2018-05-27T14:50:37.981Z,4.00
2018-05-27T14:53:08.369Z,3.50
2018-05-27T14:55:39.003Z,4.10
2018-05-27T14:58:09.461Z,5.33
2018-05-27T15:00:40.021Z,5.03
2018-05-27T15:03:10.947Z,4.60
2018-05-27T15:05:42.063Z,4.07
2018-05-27T15:08:12.222Z,4.70
2018-05-27T15:10:43.602Z,4.93
2018-05-27T15:13:13.697Z,3.97
2018-05-27T15:15:44.851Z,5.60
2018-05-27T15:18:15.661Z,4.17
2018-05-27T15:20:45.761Z,5.27
2018-05-27T15:23:15.932Z,4.83
2018-05-27T15:25:46.269Z,4.67
2018-05-27T15:28:17.330Z,5.00
2018-05-27T15:30:47.508Z,5.00
2018-05-27T15:33:17.796Z,4.73
2018-05-27T15:35:48.749Z,5.93
2018-05-27T15:38:20.195Z,5.50
2018-05-27T15:40:51.462Z,5.17
2018-05-27T15:43:21.754Z,4.83
2018-05-27T15:45:51.871Z,6.13
2018-05-27T15:48:22.696Z,4.70
2018-05-27T15:50:52.787Z,4.70
2018-05-27T15:53:22.835Z,5.90
2018-05-27T15:55:53.340Z,5.30
2018-05-27T15:58:24.044Z,4.80
2018-05-27T16:00:54.077Z,4.70
2018-05-27T16:03:24.541Z,5.03
2018-05-27T16:05:54.766Z,5.07
2018-05-27T16:08:25.013Z,5.80
2018-05-27T16:10:55.812Z,4.60
2018-05-27T16:13:26.505Z,4.30
2018-05-27T16:15:57.396Z,4.20
2018-05-27T16:18:27.833Z,5.50
2018-05-27T16:20:58.613Z,4.87
2018-05-27T16:23:28.885Z,4.83
2018-05-27T16:25:59.216Z,6.93
2018-05-27T16:28:29.476Z,5.03
2018-05-27T16:30:59.976Z,4.63
2018-05-27T16:33:31.437Z,6.00
2018-05-27T16:36:01.943Z,4.53
2018-05-27T16:38:32.055Z,4.67
2018-05-27T16:41:02.483Z,4.40
2018-05-27T16:43:32.591Z,5.40
2018-05-27T16:46:03.434Z,4.70
2018-05-27T16:48:35.112Z,4.73
2018-05-27T16:51:06.105Z,4.50
2018-05-27T16:53:37.458Z,4.23
2018-05-27T16:56:07.858Z,4.50
2018-05-27T16:58:38.688Z,4.70
2018-05-27T17:01:09.173Z,4.77
2018-05-27T17:03:39.511Z,5.10
2018-05-27T17:06:09.789Z,5.40
2018-05-27T17:08:40.450Z,5.10
2018-05-27T17:11:11.594Z,7.90
2018-05-27T17:13:41.869Z,5.67
2018-05-27T17:16:12.064Z,4.77
2018-05-27T17:18:43.257Z,5.40
2018-05-27T17:21:13.391Z,7.53
2018-05-27T17:23:43.761Z,6.23
2018-05-27T17:26:15.936Z,5.20
2018-05-27T17:28:46.129Z,4.90
2018-05-27T17:31:16.935Z,6.57
2018-05-27T17:33:47.031Z,6.97
2018-05-27T17:36:18.500Z,7.10
2018-05-27T17:38:49.079Z,5.97
2018-05-27T17:41:19.214Z,5.73
2018-05-27T17:43:49.371Z,5.80
2018-05-27T17:46:20.958Z,5.87
2018-05-27T17:48:51.207Z,5.57
2018-05-27T17:51:21.468Z,5.50
2018-05-27T17:53:53.587Z,8.07
2018-05-27T17:56:25.034Z,5.30
2018-05-27T17:58:56.483Z,6.40
2018-05-27T18:01:27.930Z,6.33
2018-05-27T18:03:58.835Z,5.43
2018-05-27T18:06:29.034Z,5.20
2018-05-27T18:08:59.263Z,5.90
2018-05-27T18:11:29.578Z,5.83
2018-05-27T18:14:00.338Z,6.67
2018-05-27T18:16:30.766Z,6.67
2018-05-27T18:19:01.949Z,7.30
2018-05-27T18:21:32.777Z,6.50
2018-05-27T18:24:04.186Z,5.93
2018-05-27T18:26:34.763Z,10.13
2018-05-27T18:29:05.978Z,8.93
2018-05-27T18:31:36.049Z,9.23
2018-05-27T18:34:07.177Z,19.43
2018-05-27T18:36:37.370Z,14.40
2018-05-27T18:39:07.863Z,16.77
2018-05-27T18:41:38.515Z,8.33
2018-05-27T18:44:08.707Z,12.73
2018-05-27T18:46:38.935Z,22.63
2018-05-27T18:49:10.829Z,10.10
2018-05-27T18:51:41.111Z,13.40
2018-05-27T18:54:12.297Z,9.87
2018-05-27T18:56:43.325Z,50.07
2018-05-27T18:59:13.913Z,9.73
2018-05-27T19:01:44.239Z,8.53
2018-05-27T19:04:15.060Z,8.63
2018-05-27T19:06:45.232Z,8.77
2018-05-27T19:09:16.537Z,8.67
2018-05-27T19:11:46.942Z,9.57
2018-05-27T19:14:17.949Z,10.37
2018-05-27T19:16:50.590Z,11.17
2018-05-27T19:19:21.203Z,9.93
2018-05-27T19:21:52.366Z,10.13
2018-05-27T19:24:23.850Z,11.23
2018-05-27T19:26:54.319Z,15.37
2018-05-27T19:29:27.322Z,11.73
2018-05-27T19:31:59.236Z,12.73
2018-05-27T19:34:29.824Z,12.77
2018-05-27T19:36:59.988Z,14.00
2018-05-27T19:39:30.519Z,14.07
2018-05-27T19:42:01.214Z,12.53
2018-05-27T19:44:31.790Z,13.23
2018-05-27T19:47:02.228Z,12.87
2018-05-27T19:49:33.204Z,15.20
2018-05-27T19:52:04.531Z,13.17
2018-05-27T19:54:38.800Z,12.93
2018-05-27T19:57:10.359Z,13.17
2018-05-27T19:59:42.014Z,13.10
2018-05-27T20:02:12.964Z,13.60
2018-05-27T20:04:43.983Z,13.20
2018-05-27T20:07:14.828Z,13.80
2018-05-27T20:09:45.095Z,12.70
2018-05-27T20:12:15.582Z,13.33
2018-05-27T20:14:46.966Z,12.77
2018-05-27T20:17:17.716Z,12.87
2018-05-27T20:19:48.487Z,12.67
2018-05-27T20:22:20.605Z,12.70
2018-05-27T20:24:54.157Z,13.40
2018-05-27T20:27:26.803Z,14.30
2018-05-27T20:29:57.205Z,13.37
2018-05-27T20:32:27.858Z,13.40
2018-05-27T20:34:58.370Z,12.20
2018-05-27T20:37:28.478Z,14.37
2018-05-27T20:39:59.373Z,13.70
2018-05-27T20:42:29.958Z,14.17
2018-05-27T20:45:00.261Z,13.43
2018-05-27T20:47:31.089Z,14.13
2018-05-27T20:50:03.466Z,13.83
2018-05-27T20:52:34.402Z,13.50
2018-05-27T20:55:05.698Z,15.13
2018-05-27T20:57:35.907Z,14.60
2018-05-27T21:00:06.433Z,13.87
2018-05-27T21:02:38.489Z,14.93
2018-05-27T21:05:09.628Z,16.30
2018-05-27T21:07:41.251Z,15.70
2018-05-27T21:10:12.949Z,15.20
2018-05-27T21:12:43.428Z,14.70
2018-05-27T21:15:15.213Z,16.13
2018-05-27T21:17:45.366Z,16.13
2018-05-27T21:20:15.711Z,16.47
2018-05-27T21:22:47.081Z,16.70
2018-05-27T21:25:18.078Z,16.17
2018-05-27T21:27:48.174Z,16.50
2018-05-27T21:30:18.214Z,16.57
2018-05-27T21:32:48.760Z,16.90
2018-05-27T21:35:19.778Z,17.73
2018-05-27T21:37:49.913Z,18.63
2018-05-27T21:40:20.533Z,18.70
2018-05-27T21:42:50.829Z,18.30
2018-05-27T21:45:21.035Z,18.23
2018-05-27T21:47:52.137Z,18.37
2018-05-27T21:50:22.544Z,19.10
2018-05-27T21:52:52.628Z,20.37
2018-05-27T21:55:22.890Z,20.23
2018-05-27T21:57:54.789Z,19.83
2018-05-27T22:00:25.361Z,19.37
2018-05-27T22:02:55.429Z,21.07
2018-05-27T22:05:25.875Z,20.17
2018-05-27T22:07:57.012Z,20.33
2018-05-27T22:10:27.338Z,20.63
2018-05-27T22:12:59.301Z,21.17
2018-05-27T22:15:29.706Z,21.03
2018-05-27T22:18:00.791Z,20.80
2018-05-27T22:20:31.049Z,19.83
2018-05-27T22:23:01.461Z,19.83
2018-05-27T22:25:31.442Z,20.30
2018-05-27T22:28:02.313Z,20.30
2018-05-27T22:30:32.284Z,19.87
2018-05-27T22:33:03.461Z,19.20
2018-05-27T22:35:33.504Z,20.83
2018-05-27T22:38:03.556Z,20.20
2018-05-27T22:40:34.570Z,19.20
2018-05-27T22:43:04.892Z,19.33
2018-05-27T22:45:34.992Z,20.17
2018-05-27T22:48:05.315Z,20.03
2018-05-27T22:50:35.628Z,19.70
2018-05-27T22:53:05.641Z,22.47
2018-05-27T22:55:35.658Z,19.83
2018-05-27T22:58:05.950Z,19.33
2018-05-27T23:00:36.826Z,19.00
2018-05-27T23:03:08.001Z,20.40
2018-05-27T23:05:38.107Z,22.90
2018-05-27T23:08:08.550Z,19.50
2018-05-27T23:10:39.899Z,20.30
2018-05-27T23:13:10.235Z,21.67
2018-05-27T23:15:40.868Z,20.33
2018-05-27T23:18:11.417Z,18.73
2018-05-27T23:20:42.167Z,19.23
2018-05-27T23:23:13.965Z,18.90
2018-05-27T23:25:46.004Z,19.50
2018-05-27T23:28:16.080Z,18.20
2018-05-27T23:30:46.136Z,18.23
2018-05-27T23:33:16.168Z,19.13
2018-05-27T23:35:46.630Z,17.80
2018-05-27T23:38:16.732Z,18.77
2018-05-27T23:40:47.589Z,18.23
2018-05-27T23:43:17.962Z,16.63
2018-05-27T23:45:48.084Z,16.13
2018-05-27T23:48:18.960Z,19.17
2018-05-27T23:50:50.145Z,14.73
2018-05-27T23:53:20.493Z,14.53
2018-05-27T23:55:50.991Z,14.13
2018-05-27T23:58:21.990Z,12.60
